sensor_id;sensor_type;location;lat;lon;timestamp;pressure;altitude;pressure_sealevel;temperature;humidity
21401;BME280;18038;50.166;18.908;2023-04-27T00:03:24;98117.38;;;3.40;57.88
21401;BME280;18038;50.166;18.908;2023-04-27T00:06:37;98119.16;;;3.39;57.80
21401;BME280;18038;50.166;18.908;2023-04-27T00:09:43;98112.66;;;3.34;57.52
21401;BME280;18038;50.166;18.908;2023-04-27T00:12:50;98118.91;;;3.33;57.42
21401;BME280;18038;50.166;18.908;2023-04-27T00:15:56;98110.75;;;3.26;58.32
21401;BME280;18038;50.166;18.908;2023-04-27T00:19:08;98119.69;;;3.15;58.38
21401;BME280;18038;50.166;18.908;2023-04-27T00:22:15;98125.69;;;3.08;58.85
21401;BME280;18038;50.166;18.908;2023-04-27T00:25:24;98107.06;;;3.09;58.86
21401;BME280;18038;50.166;18.908;2023-04-27T00:28:30;98111.94;;;2.94;59.25
21401;BME280;18038;50.166;18.908;2023-04-27T00:31:37;98117.91;;;2.96;59.45
21401;BME280;18038;50.166;18.908;2023-04-27T00:34:45;98113.53;;;2.87;59.72
21401;BME280;18038;50.166;18.908;2023-04-27T00:37:53;98112.25;;;2.81;59.78
21401;BME280;18038;50.166;18.908;2023-04-27T00:41:03;98112.97;;;2.83;60.22
21401;BME280;18038;50.166;18.908;2023-04-27T00:44:11;98112.13;;;2.83;60.08
21401;BME280;18038;50.166;18.908;2023-04-27T00:47:18;98118.28;;;2.74;60.71
21401;BME280;18038;50.166;18.908;2023-04-27T00:50:28;98119.41;;;2.61;61.04
21401;BME280;18038;50.166;18.908;2023-04-27T00:53:36;98119.00;;;2.56;61.70
21401;BME280;18038;50.166;18.908;2023-04-27T00:56:44;98122.22;;;2.50;62.02
21401;BME280;18038;50.166;18.908;2023-04-27T00:59:53;98118.88;;;2.48;61.81
21401;BME280;18038;50.166;18.908;2023-04-27T01:03:00;98121.91;;;2.53;61.83
21401;BME280;18038;50.166;18.908;2023-04-27T01:06:10;98130.13;;;2.50;61.99
21401;BME280;18038;50.166;18.908;2023-04-27T01:09:19;98126.09;;;2.46;62.16
21401;BME280;18038;50.166;18.908;2023-04-27T01:12:25;98113.59;;;2.48;62.21
21401;BME280;18038;50.166;18.908;2023-04-27T01:15:32;98119.69;;;2.58;62.02
21401;BME280;18038;50.166;18.908;2023-04-27T01:18:38;98113.84;;;2.55;62.17
21401;BME280;18038;50.166;18.908;2023-04-27T01:21:49;98123.03;;;2.51;62.26
21401;BME280;18038;50.166;18.908;2023-04-27T01:24:57;98129.53;;;2.56;62.09
21401;BME280;18038;50.166;18.908;2023-04-27T01:28:06;98135.69;;;2.47;62.25
21401;BME280;18038;50.166;18.908;2023-04-27T01:31:12;98125.13;;;2.47;62.47
21401;BME280;18038;50.166;18.908;2023-04-27T01:34:22;98128.72;;;2.46;62.64
21401;BME280;18038;50.166;18.908;2023-04-27T01:37:28;98130.00;;;2.32;63.06
21401;BME280;18038;50.166;18.908;2023-04-27T01:40:37;98131.50;;;2.25;63.45
21401;BME280;18038;50.166;18.908;2023-04-27T01:43:43;98137.19;;;2.21;63.70
21401;BME280;18038;50.166;18.908;2023-04-27T01:46:50;98136.66;;;2.17;63.99
21401;BME280;18038;50.166;18.908;2023-04-27T01:49:56;98129.31;;;2.11;64.20
21401;BME280;18038;50.166;18.908;2023-04-27T01:53:03;98135.97;;;2.05;64.63
21401;BME280;18038;50.166;18.908;2023-04-27T01:56:11;98137.91;;;2.03;64.75
21401;BME280;18038;50.166;18.908;2023-04-27T01:59:19;98134.44;;;2.03;64.68
21401;BME280;18038;50.166;18.908;2023-04-27T02:02:26;98136.63;;;2.07;64.55
21401;BME280;18038;50.166;18.908;2023-04-27T02:05:33;98134.69;;;2.09;64.43
21401;BME280;18038;50.166;18.908;2023-04-27T02:08:39;98138.16;;;2.10;64.27
21401;BME280;18038;50.166;18.908;2023-04-27T02:11:48;98143.84;;;2.15;64.30
21401;BME280;18038;50.166;18.908;2023-04-27T02:14:54;98136.09;;;2.13;64.40
21401;BME280;18038;50.166;18.908;2023-04-27T02:18:01;98139.44;;;2.15;64.12
21401;BME280;18038;50.166;18.908;2023-04-27T02:21:08;98143.03;;;2.14;64.25
21401;BME280;18038;50.166;18.908;2023-04-27T02:24:15;98130.25;;;2.10;64.56
21401;BME280;18038;50.166;18.908;2023-04-27T02:27:24;98131.38;;;2.07;64.18
21401;BME280;18038;50.166;18.908;2023-04-27T02:30:33;98132.34;;;2.06;64.19
21401;BME280;18038;50.166;18.908;2023-04-27T02:33:39;98135.28;;;2.13;64.47
21401;BME280;18038;50.166;18.908;2023-04-27T02:36:46;98137.06;;;2.12;63.86
21401;BME280;18038;50.166;18.908;2023-04-27T02:39:52;98140.81;;;2.10;64.19
21401;BME280;18038;50.166;18.908;2023-04-27T02:43:01;98137.47;;;1.98;64.78
21401;BME280;18038;50.166;18.908;2023-04-27T02:46:07;98134.16;;;1.96;65.11
21401;BME280;18038;50.166;18.908;2023-04-27T02:49:15;98129.16;;;1.93;64.85
21401;BME280;18038;50.166;18.908;2023-04-27T02:52:20;98128.31;;;1.92;65.37
21401;BME280;18038;50.166;18.908;2023-04-27T02:55:27;98131.78;;;1.93;65.27
21401;BME280;18038;50.166;18.908;2023-04-27T02:58:36;98133.03;;;1.89;65.35
21401;BME280;18038;50.166;18.908;2023-04-27T03:01:46;98140.69;;;1.92;65.29
21401;BME280;18038;50.166;18.908;2023-04-27T03:04:53;98143.31;;;1.92;65.27
21401;BME280;18038;50.166;18.908;2023-04-27T03:07:59;98139.00;;;1.81;65.21
21401;BME280;18038;50.166;18.908;2023-04-27T03:11:05;98151.47;;;1.79;65.64
21401;BME280;18038;50.166;18.908;2023-04-27T03:14:17;98147.16;;;1.88;65.44
21401;BME280;18038;50.166;18.908;2023-04-27T03:17:26;98151.88;;;1.84;65.49
21401;BME280;18038;50.166;18.908;2023-04-27T03:20:33;98152.44;;;1.88;65.36
21401;BME280;18038;50.166;18.908;2023-04-27T03:23:39;98156.72;;;1.79;65.54
21401;BME280;18038;50.166;18.908;2023-04-27T03:26:46;98158.50;;;1.69;65.87
21401;BME280;18038;50.166;18.908;2023-04-27T03:29:58;98155.75;;;1.70;65.91
21401;BME280;18038;50.166;18.908;2023-04-27T03:33:06;98153.94;;;1.81;65.80
21401;BME280;18038;50.166;18.908;2023-04-27T03:36:12;98156.59;;;1.90;65.59
21401;BME280;18038;50.166;18.908;2023-04-27T03:39:18;98158.97;;;1.93;65.43
21401;BME280;18038;50.166;18.908;2023-04-27T03:42:25;98160.75;;;1.93;65.33
21401;BME280;18038;50.166;18.908;2023-04-27T03:45:34;98166.72;;;1.95;65.15
21401;BME280;18038;50.166;18.908;2023-04-27T03:48:40;98172.00;;;1.95;65.03
21401;BME280;18038;50.166;18.908;2023-04-27T03:51:49;98173.13;;;2.02;65.06
21401;BME280;18038;50.166;18.908;2023-04-27T03:54:55;98165.78;;;2.15;65.03
21401;BME280;18038;50.166;18.908;2023-04-27T03:58:03;98178.81;;;2.17;64.77
21401;BME280;18038;50.166;18.908;2023-04-27T04:01:12;98173.56;;;2.27;64.21
21401;BME280;18038;50.166;18.908;2023-04-27T04:04:19;98172.72;;;2.36;64.43
21401;BME280;18038;50.166;18.908;2023-04-27T04:07:26;98183.97;;;2.48;63.86
21401;BME280;18038;50.166;18.908;2023-04-27T04:10:34;98178.53;;;2.59;63.55
21401;BME280;18038;50.166;18.908;2023-04-27T04:13:41;98184.75;;;2.68;63.19
21401;BME280;18038;50.166;18.908;2023-04-27T04:16:51;98190.44;;;2.73;62.65
21401;BME280;18038;50.166;18.908;2023-04-27T04:19:57;98190.59;;;2.71;62.53
21401;BME280;18038;50.166;18.908;2023-04-27T04:23:04;98200.16;;;2.82;62.29
21401;BME280;18038;50.166;18.908;2023-04-27T04:26:11;98190.03;;;2.87;62.35
21401;BME280;18038;50.166;18.908;2023-04-27T04:29:18;98196.25;;;2.96;61.80
21401;BME280;18038;50.166;18.908;2023-04-27T04:32:26;98201.81;;;2.93;62.04
21401;BME280;18038;50.166;18.908;2023-04-27T04:35:36;98197.78;;;2.98;62.40
21401;BME280;18038;50.166;18.908;2023-04-27T04:38:43;98204.19;;;3.06;62.20
21401;BME280;18038;50.166;18.908;2023-04-27T04:41:50;98215.41;;;3.08;61.58
21401;BME280;18038;50.166;18.908;2023-04-27T04:45:02;98217.13;;;3.36;61.14
21401;BME280;18038;50.166;18.908;2023-04-27T04:48:13;98203.47;;;3.78;60.01
21401;BME280;18038;50.166;18.908;2023-04-27T04:51:20;98218.69;;;3.94;59.09
21401;BME280;18038;50.166;18.908;2023-04-27T04:54:27;98217.97;;;4.20;58.15
21401;BME280;18038;50.166;18.908;2023-04-27T04:57:33;98224.56;;;4.33;57.57
21401;BME280;18038;50.166;18.908;2023-04-27T05:00:41;98224.19;;;4.46;57.65
21401;BME280;18038;50.166;18.908;2023-04-27T05:03:49;98228.72;;;4.54;56.90
21401;BME280;18038;50.166;18.908;2023-04-27T05:06:58;98234.09;;;4.62;56.79
21401;BME280;18038;50.166;18.908;2023-04-27T05:10:06;98234.22;;;4.78;56.67
21401;BME280;18038;50.166;18.908;2023-04-27T05:13:14;98238.06;;;4.84;55.43
21401;BME280;18038;50.166;18.908;2023-04-27T05:16:20;98240.03;;;4.82;55.72
21401;BME280;18038;50.166;18.908;2023-04-27T05:19:32;98233.59;;;4.85;55.08
21401;BME280;18038;50.166;18.908;2023-04-27T05:22:38;98239.34;;;4.98;55.29
21401;BME280;18038;50.166;18.908;2023-04-27T05:25:49;98245.53;;;5.07;54.73
21401;BME280;18038;50.166;18.908;2023-04-27T05:28:55;98240.44;;;5.13;53.83
21401;BME280;18038;50.166;18.908;2023-04-27T05:32:09;98239.81;;;5.19;53.32
21401;BME280;18038;50.166;18.908;2023-04-27T05:35:21;98240.91;;;5.35;52.92
21401;BME280;18038;50.166;18.908;2023-04-27T05:38:27;98239.00;;;5.45;53.18
21401;BME280;18038;50.166;18.908;2023-04-27T05:41:35;98256.81;;;5.61;52.10
21401;BME280;18038;50.166;18.908;2023-04-27T05:44:41;98257.34;;;6.49;49.54
21401;BME280;18038;50.166;18.908;2023-04-27T05:47:47;98252.34;;;7.44;47.64
21401;BME280;18038;50.166;18.908;2023-04-27T05:51:02;98262.66;;;8.89;43.63
21401;BME280;18038;50.166;18.908;2023-04-27T05:54:10;98259.97;;;8.97;42.60
21401;BME280;18038;50.166;18.908;2023-04-27T05:57:17;98265.72;;;9.76;40.84
21401;BME280;18038;50.166;18.908;2023-04-27T06:00:23;98268.38;;;9.91;40.64
21401;BME280;18038;50.166;18.908;2023-04-27T06:03:31;98263.09;;;10.42;39.98
21401;BME280;18038;50.166;18.908;2023-04-27T06:06:40;98272.72;;;10.58;38.68
21401;BME280;18038;50.166;18.908;2023-04-27T06:09:47;98271.19;;;11.35;37.48
21401;BME280;18038;50.166;18.908;2023-04-27T06:12:58;98273.50;;;11.66;36.89
21401;BME280;18038;50.166;18.908;2023-04-27T06:16:07;98277.75;;;11.32;37.36
21401;BME280;18038;50.166;18.908;2023-04-27T06:19:19;98273.84;;;12.33;36.37
21401;BME280;18038;50.166;18.908;2023-04-27T06:22:28;98267.25;;;12.90;34.72
21401;BME280;18038;50.166;18.908;2023-04-27T06:25:35;98270.16;;;13.08;34.57
21401;BME280;18038;50.166;18.908;2023-04-27T06:28:43;98277.34;;;14.01;32.75
21401;BME280;18038;50.166;18.908;2023-04-27T06:31:49;98274.03;;;13.99;32.10
21401;BME280;18038;50.166;18.908;2023-04-27T06:34:56;98275.09;;;12.98;33.52
21401;BME280;18038;50.166;18.908;2023-04-27T06:38:06;98280.38;;;12.78;34.25
21401;BME280;18038;50.166;18.908;2023-04-27T06:41:12;98281.72;;;13.35;34.18
21401;BME280;18038;50.166;18.908;2023-04-27T06:44:21;98286.19;;;14.15;32.33
21401;BME280;18038;50.166;18.908;2023-04-27T06:47:28;98285.22;;;14.54;31.41
21401;BME280;18038;50.166;18.908;2023-04-27T06:50:34;98281.44;;;14.17;31.88
21401;BME280;18038;50.166;18.908;2023-04-27T06:53:43;98279.34;;;14.19;32.84
21401;BME280;18038;50.166;18.908;2023-04-27T06:56:49;98288.91;;;14.60;31.63
21401;BME280;18038;50.166;18.908;2023-04-27T06:59:57;98289.56;;;15.25;30.29
21401;BME280;18038;50.166;18.908;2023-04-27T07:03:03;98294.72;;;14.57;29.86
21401;BME280;18038;50.166;18.908;2023-04-27T07:06:10;98292.72;;;14.32;31.17
21401;BME280;18038;50.166;18.908;2023-04-27T07:09:19;98289.84;;;15.42;29.10
21401;BME280;18038;50.166;18.908;2023-04-27T07:12:29;98282.63;;;15.61;29.04
21401;BME280;18038;50.166;18.908;2023-04-27T07:15:35;98287.09;;;14.47;30.42
21401;BME280;18038;50.166;18.908;2023-04-27T07:18:42;98290.56;;;14.99;29.39
21401;BME280;18038;50.166;18.908;2023-04-27T07:21:48;98281.81;;;15.86;29.22
21401;BME280;18038;50.166;18.908;2023-04-27T07:24:58;98291.13;;;15.33;29.60
21401;BME280;18038;50.166;18.908;2023-04-27T07:28:05;98290.34;;;16.56;27.65
21401;BME280;18038;50.166;18.908;2023-04-27T07:31:12;98285.88;;;16.13;27.38
21401;BME280;18038;50.166;18.908;2023-04-27T07:34:19;98294.03;;;14.68;29.44
21401;BME280;18038;50.166;18.908;2023-04-27T07:37:26;98290.06;;;15.09;29.37
21401;BME280;18038;50.166;18.908;2023-04-27T07:40:35;98289.38;;;15.95;28.02
21401;BME280;18038;50.166;18.908;2023-04-27T07:43:42;98282.59;;;15.43;28.47
21401;BME280;18038;50.166;18.908;2023-04-27T07:46:50;98287.47;;;13.79;30.61
21401;BME280;18038;50.166;18.908;2023-04-27T07:50:00;98285.59;;;12.80;32.77
21401;BME280;18038;50.166;18.908;2023-04-27T07:53:07;98280.25;;;12.93;32.11
21401;BME280;18038;50.166;18.908;2023-04-27T07:56:17;98286.59;;;11.61;33.33
21401;BME280;18038;50.166;18.908;2023-04-27T07:59:23;98293.16;;;11.30;33.87
21401;BME280;18038;50.166;18.908;2023-04-27T08:02:30;98293.16;;;10.87;35.02
21401;BME280;18038;50.166;18.908;2023-04-27T08:05:36;98294.28;;;10.27;36.27
21401;BME280;18038;50.166;18.908;2023-04-27T08:08:43;98296.53;;;10.74;34.60
21401;BME280;18038;50.166;18.908;2023-04-27T08:11:52;98289.66;;;12.76;31.79
21401;BME280;18038;50.166;18.908;2023-04-27T08:14:59;98287.56;;;12.71;31.45
21401;BME280;18038;50.166;18.908;2023-04-27T08:18:05;98272.78;;;11.86;31.98
21401;BME280;18038;50.166;18.908;2023-04-27T08:21:12;98281.91;;;10.92;33.63
21401;BME280;18038;50.166;18.908;2023-04-27T08:24:18;98283.78;;;10.55;34.56
21401;BME280;18038;50.166;18.908;2023-04-27T08:27:28;98285.81;;;10.38;34.63
21401;BME280;18038;50.166;18.908;2023-04-27T08:30:36;98290.34;;;10.38;34.42
21401;BME280;18038;50.166;18.908;2023-04-27T08:33:43;98280.28;;;10.55;34.56
21401;BME280;18038;50.166;18.908;2023-04-27T08:36:49;98294.22;;;10.05;34.19
21401;BME280;18038;50.166;18.908;2023-04-27T08:39:56;98295.16;;;9.83;34.86
21401;BME280;18038;50.166;18.908;2023-04-27T08:43:07;98298.94;;;9.89;34.93
21401;BME280;18038;50.166;18.908;2023-04-27T08:46:17;98292.31;;;9.99;33.64
21401;BME280;18038;50.166;18.908;2023-04-27T08:49:24;98291.38;;;9.62;34.18
21401;BME280;18038;50.166;18.908;2023-04-27T08:52:31;98299.03;;;9.28;34.42
21401;BME280;18038;50.166;18.908;2023-04-27T08:55:39;98298.66;;;9.08;35.36
21401;BME280;18038;50.166;18.908;2023-04-27T08:58:48;98298.38;;;8.48;35.91
21401;BME280;18038;50.166;18.908;2023-04-27T09:01:56;98301.47;;;8.21;36.15
21401;BME280;18038;50.166;18.908;2023-04-27T09:05:04;98304.78;;;8.62;36.08
21401;BME280;18038;50.166;18.908;2023-04-27T09:08:11;98302.38;;;8.75;37.02
21401;BME280;18038;50.166;18.908;2023-04-27T09:11:28;98302.44;;;8.90;36.15
21401;BME280;18038;50.166;18.908;2023-04-27T09:14:41;98290.47;;;8.86;35.54
21401;BME280;18038;50.166;18.908;2023-04-27T09:17:53;98296.88;;;9.46;35.35
21401;BME280;18038;50.166;18.908;2023-04-27T09:21:00;98292.13;;;9.86;34.35
21401;BME280;18038;50.166;18.908;2023-04-27T09:24:20;98283.84;;;9.81;32.45
21401;BME280;18038;50.166;18.908;2023-04-27T09:27:26;98290.63;;;10.13;32.49
21401;BME280;18038;50.166;18.908;2023-04-27T09:30:35;98286.59;;;10.02;33.92
21401;BME280;18038;50.166;18.908;2023-04-27T09:33:43;98288.50;;;9.64;33.62
21401;BME280;18038;50.166;18.908;2023-04-27T09:36:52;98293.53;;;9.44;34.63
21401;BME280;18038;50.166;18.908;2023-04-27T09:39:58;98289.91;;;8.99;35.47
21401;BME280;18038;50.166;18.908;2023-04-27T09:43:08;98295.47;;;9.12;34.04
21401;BME280;18038;50.166;18.908;2023-04-27T09:46:18;98292.34;;;9.09;35.07
21401;BME280;18038;50.166;18.908;2023-04-27T09:49:28;98284.47;;;9.15;35.80
21401;BME280;18038;50.166;18.908;2023-04-27T09:52:38;98295.38;;;9.44;34.28
21401;BME280;18038;50.166;18.908;2023-04-27T09:55:55;98296.69;;;9.62;35.35
21401;BME280;18038;50.166;18.908;2023-04-27T09:59:31;98286.91;;;9.40;34.19
21401;BME280;18038;50.166;18.908;2023-04-27T10:03:04;98292.75;;;9.73;33.51
21401;BME280;18038;50.166;18.908;2023-04-27T10:10:17;98293.41;;;9.37;35.38
21401;BME280;18038;50.166;18.908;2023-04-27T10:13:25;98288.66;;;9.33;35.75
21401;BME280;18038;50.166;18.908;2023-04-27T10:16:42;98295.47;;;9.50;35.06
21401;BME280;18038;50.166;18.908;2023-04-27T10:19:56;98293.53;;;9.44;36.79
21401;BME280;18038;50.166;18.908;2023-04-27T10:23:04;98292.72;;;9.58;35.17
21401;BME280;18038;50.166;18.908;2023-04-27T10:26:10;98289.91;;;9.22;36.25
21401;BME280;18038;50.166;18.908;2023-04-27T10:29:17;98293.69;;;9.05;35.98
21401;BME280;18038;50.166;18.908;2023-04-27T10:32:25;98286.41;;;9.59;36.33
21401;BME280;18038;50.166;18.908;2023-04-27T10:35:36;98286.69;;;9.94;35.11
21401;BME280;18038;50.166;18.908;2023-04-27T10:38:43;98281.50;;;10.22;32.41
21401;BME280;18038;50.166;18.908;2023-04-27T10:41:52;98278.19;;;10.50;32.28
21401;BME280;18038;50.166;18.908;2023-04-27T10:45:00;98284.44;;;10.57;32.98
21401;BME280;18038;50.166;18.908;2023-04-27T10:48:13;98291.56;;;10.71;33.11
21401;BME280;18038;50.166;18.908;2023-04-27T10:51:24;98297.75;;;10.93;31.28
21401;BME280;18038;50.166;18.908;2023-04-27T10:54:34;98289.72;;;11.15;32.83
21401;BME280;18038;50.166;18.908;2023-04-27T10:57:45;98298.63;;;11.22;31.45
21401;BME280;18038;50.166;18.908;2023-04-27T11:00:53;98298.50;;;10.66;31.03
21401;BME280;18038;50.166;18.908;2023-04-27T11:04:00;98293.00;;;10.52;31.38
21401;BME280;18038;50.166;18.908;2023-04-27T11:07:11;98300.81;;;10.54;31.56
21401;BME280;18038;50.166;18.908;2023-04-27T11:10:27;98296.63;;;9.85;31.99
21401;BME280;18038;50.166;18.908;2023-04-27T11:13:39;98300.13;;;9.33;32.45
21401;BME280;18038;50.166;18.908;2023-04-27T11:16:48;98297.19;;;9.43;32.97
21401;BME280;18038;50.166;18.908;2023-04-27T11:19:55;98300.78;;;9.35;32.96
21401;BME280;18038;50.166;18.908;2023-04-27T11:23:07;98304.88;;;9.61;34.97
21401;BME280;18038;50.166;18.908;2023-04-27T11:26:16;98303.88;;;9.62;34.88
21401;BME280;18038;50.166;18.908;2023-04-27T11:29:24;98293.38;;;9.60;35.39
21401;BME280;18038;50.166;18.908;2023-04-27T11:32:31;98303.16;;;9.83;34.71
21401;BME280;18038;50.166;18.908;2023-04-27T11:35:38;98301.09;;;9.55;36.10
21401;BME280;18038;50.166;18.908;2023-04-27T11:38:48;98294.75;;;9.18;36.38
21401;BME280;18038;50.166;18.908;2023-04-27T11:41:54;98306.97;;;9.51;35.13
21401;BME280;18038;50.166;18.908;2023-04-27T11:45:02;98301.31;;;9.31;34.74
21401;BME280;18038;50.166;18.908;2023-04-27T11:48:14;98305.63;;;9.32;36.28
21401;BME280;18038;50.166;18.908;2023-04-27T11:51:23;98298.34;;;9.63;35.67
21401;BME280;18038;50.166;18.908;2023-04-27T11:54:33;98302.97;;;9.99;36.03
21401;BME280;18038;50.166;18.908;2023-04-27T11:57:40;98304.34;;;10.40;33.74
21401;BME280;18038;50.166;18.908;2023-04-27T12:00:46;98308.03;;;10.39;32.53
21401;BME280;18038;50.166;18.908;2023-04-27T12:03:54;98308.09;;;10.60;33.44
21401;BME280;18038;50.166;18.908;2023-04-27T12:07:12;98309.75;;;10.17;31.81
21401;BME280;18038;50.166;18.908;2023-04-27T12:10:19;98308.94;;;10.16;31.55
21401;BME280;18038;50.166;18.908;2023-04-27T12:13:27;98311.25;;;9.90;31.24
21401;BME280;18038;50.166;18.908;2023-04-27T12:16:34;98307.41;;;10.07;32.10
21401;BME280;18038;50.166;18.908;2023-04-27T12:19:47;98310.25;;;10.20;32.00
21401;BME280;18038;50.166;18.908;2023-04-27T12:22:56;98305.38;;;9.94;31.67
21401;BME280;18038;50.166;18.908;2023-04-27T12:26:03;98305.56;;;10.07;31.73
21401;BME280;18038;50.166;18.908;2023-04-27T12:29:09;98295.28;;;10.56;32.67
21401;BME280;18038;50.166;18.908;2023-04-27T12:32:15;98297.28;;;10.17;32.28
21401;BME280;18038;50.166;18.908;2023-04-27T12:35:22;98296.75;;;10.58;33.65
21401;BME280;18038;50.166;18.908;2023-04-27T12:38:31;98297.25;;;10.47;32.83
21401;BME280;18038;50.166;18.908;2023-04-27T12:41:38;98291.72;;;10.34;33.46
21401;BME280;18038;50.166;18.908;2023-04-27T12:44:44;98301.56;;;10.48;33.17
21401;BME280;18038;50.166;18.908;2023-04-27T12:47:57;98299.81;;;10.40;34.15
21401;BME280;18038;50.166;18.908;2023-04-27T12:51:05;98296.59;;;10.45;33.02
21401;BME280;18038;50.166;18.908;2023-04-27T12:54:15;98294.63;;;10.54;33.89
21401;BME280;18038;50.166;18.908;2023-04-27T12:57:21;98294.94;;;10.29;33.23
21401;BME280;18038;50.166;18.908;2023-04-27T13:00:31;98296.31;;;10.25;34.46
21401;BME280;18038;50.166;18.908;2023-04-27T13:03:38;98295.81;;;10.66;34.47
21401;BME280;18038;50.166;18.908;2023-04-27T13:06:45;98297.69;;;10.36;33.91
21401;BME280;18038;50.166;18.908;2023-04-27T13:09:54;98298.63;;;10.13;34.23
21401;BME280;18038;50.166;18.908;2023-04-27T13:13:01;98288.41;;;10.17;35.17
21401;BME280;18038;50.166;18.908;2023-04-27T13:16:08;98289.34;;;10.39;34.80
21401;BME280;18038;50.166;18.908;2023-04-27T13:19:15;98296.31;;;10.25;34.02
21401;BME280;18038;50.166;18.908;2023-04-27T13:22:23;98285.81;;;10.53;34.70
21401;BME280;18038;50.166;18.908;2023-04-27T13:25:33;98275.28;;;10.66;34.00
21401;BME280;18038;50.166;18.908;2023-04-27T13:28:39;98288.72;;;10.94;34.37
21401;BME280;18038;50.166;18.908;2023-04-27T13:31:46;98294.72;;;10.97;33.99
21401;BME280;18038;50.166;18.908;2023-04-27T13:34:52;98291.50;;;10.35;33.55
21401;BME280;18038;50.166;18.908;2023-04-27T13:37:59;98288.56;;;10.30;33.39
21401;BME280;18038;50.166;18.908;2023-04-27T13:41:08;98285.97;;;10.51;33.22
21401;BME280;18038;50.166;18.908;2023-04-27T13:44:17;98285.25;;;10.58;33.67
21401;BME280;18038;50.166;18.908;2023-04-27T13:47:22;98290.19;;;10.39;33.12
21401;BME280;18038;50.166;18.908;2023-04-27T13:50:32;98294.88;;;10.37;33.30
21401;BME280;18038;50.166;18.908;2023-04-27T13:53:38;98288.34;;;10.10;33.64
21401;BME280;18038;50.166;18.908;2023-04-27T13:56:47;98307.19;;;9.79;33.82
21401;BME280;18038;50.166;18.908;2023-04-27T14:00:00;98300.09;;;9.71;33.72
21401;BME280;18038;50.166;18.908;2023-04-27T14:03:10;98295.56;;;9.42;33.60
21401;BME280;18038;50.166;18.908;2023-04-27T14:06:17;98301.25;;;9.39;34.38
21401;BME280;18038;50.166;18.908;2023-04-27T14:09:24;98296.88;;;9.46;34.59
21401;BME280;18038;50.166;18.908;2023-04-27T14:12:33;98304.00;;;9.31;35.44
21401;BME280;18038;50.166;18.908;2023-04-27T14:15:41;98301.31;;;9.31;35.45
21401;BME280;18038;50.166;18.908;2023-04-27T14:18:47;98308.56;;;9.22;35.13
21401;BME280;18038;50.166;18.908;2023-04-27T14:21:57;98304.00;;;9.46;35.42
21401;BME280;18038;50.166;18.908;2023-04-27T14:25:04;98308.16;;;9.48;34.24
21401;BME280;18038;50.166;18.908;2023-04-27T14:28:15;98311.69;;;9.26;33.36
21401;BME280;18038;50.166;18.908;2023-04-27T14:31:21;98313.06;;;9.59;33.86
21401;BME280;18038;50.166;18.908;2023-04-27T14:34:30;98303.69;;;9.93;31.84
21401;BME280;18038;50.166;18.908;2023-04-27T14:37:36;98314.47;;;9.70;32.53
21401;BME280;18038;50.166;18.908;2023-04-27T14:40:43;98316.78;;;9.88;33.42
21401;BME280;18038;50.166;18.908;2023-04-27T14:43:56;98314.03;;;9.96;32.62
21401;BME280;18038;50.166;18.908;2023-04-27T14:47:09;98317.28;;;9.69;34.18
21401;BME280;18038;50.166;18.908;2023-04-27T14:50:15;98310.97;;;9.70;33.33
21401;BME280;18038;50.166;18.908;2023-04-27T14:53:22;98319.09;;;9.53;33.61
21401;BME280;18038;50.166;18.908;2023-04-27T14:56:28;98318.84;;;9.63;33.92
21401;BME280;18038;50.166;18.908;2023-04-27T14:59:38;98321.34;;;9.64;34.38
21401;BME280;18038;50.166;18.908;2023-04-27T15:02:44;98320.16;;;9.67;34.93
21401;BME280;18038;50.166;18.908;2023-04-27T15:05:51;98321.97;;;9.67;33.49
21401;BME280;18038;50.166;18.908;2023-04-27T15:08:57;98323.69;;;9.45;34.46
21401;BME280;18038;50.166;18.908;2023-04-27T15:12:06;98331.41;;;9.39;34.90
21401;BME280;18038;50.166;18.908;2023-04-27T15:15:16;98328.69;;;9.02;34.39
21401;BME280;18038;50.166;18.908;2023-04-27T15:18:24;98334.06;;;9.16;34.46
21401;BME280;18038;50.166;18.908;2023-04-27T15:21:30;98330.38;;;8.94;34.40
21401;BME280;18038;50.166;18.908;2023-04-27T15:24:37;98337.00;;;9.07;34.75
21401;BME280;18038;50.166;18.908;2023-04-27T15:27:43;98334.97;;;9.09;35.11
21401;BME280;18038;50.166;18.908;2023-04-27T15:30:53;98328.88;;;9.00;34.31
21401;BME280;18038;50.166;18.908;2023-04-27T15:33:59;98325.41;;;8.91;34.88
21401;BME280;18038;50.166;18.908;2023-04-27T15:37:14;98330.53;;;9.01;34.54
21401;BME280;18038;50.166;18.908;2023-04-27T15:40:24;98330.06;;;9.20;35.29
21401;BME280;18038;50.166;18.908;2023-04-27T15:43:31;98330.84;;;9.06;35.25
21401;BME280;18038;50.166;18.908;2023-04-27T15:46:40;98326.88;;;9.25;36.22
21401;BME280;18038;50.166;18.908;2023-04-27T15:49:47;98325.16;;;9.09;35.18
21401;BME280;18038;50.166;18.908;2023-04-27T15:52:59;98330.47;;;9.09;35.19
21401;BME280;18038;50.166;18.908;2023-04-27T15:56:10;98319.69;;;9.26;35.03
21401;BME280;18038;50.166;18.908;2023-04-27T15:59:17;98324.91;;;8.96;36.02
21401;BME280;18038;50.166;18.908;2023-04-27T16:02:26;98335.81;;;9.09;35.45
21401;BME280;18038;50.166;18.908;2023-04-27T16:05:33;98332.06;;;9.18;36.62
21401;BME280;18038;50.166;18.908;2023-04-27T16:08:39;98329.28;;;9.12;35.66
21401;BME280;18038;50.166;18.908;2023-04-27T16:11:46;98331.09;;;8.88;35.41
21401;BME280;18038;50.166;18.908;2023-04-27T16:14:53;98335.03;;;8.92;35.75
21401;BME280;18038;50.166;18.908;2023-04-27T16:18:03;98335.50;;;9.04;36.42
21401;BME280;18038;50.166;18.908;2023-04-27T16:21:11;98333.56;;;8.90;36.27
21401;BME280;18038;50.166;18.908;2023-04-27T16:24:18;98341.53;;;8.90;36.81
21401;BME280;18038;50.166;18.908;2023-04-27T16:27:31;98334.38;;;8.67;36.83
21401;BME280;18038;50.166;18.908;2023-04-27T16:30:37;98332.13;;;8.79;36.60
21401;BME280;18038;50.166;18.908;2023-04-27T16:33:47;98334.16;;;8.77;37.03
21401;BME280;18038;50.166;18.908;2023-04-27T16:36:54;98333.81;;;8.49;38.22
21401;BME280;18038;50.166;18.908;2023-04-27T16:40:01;98337.75;;;8.53;38.24